Time;durP1;ratioP1;P1;durP2;ratioP2;P2;SDS_P1;SDS_P2;PMS_P1;PMS_P2;Temp;Humidity;BMP_temperature;BMP_pressure;BME280_temperature;BME280_humidity;BME280_pressure;Samples;Min_cycle;Max_cycle;Signal;HPM_P1;HPM_P2
2022/08/14 00:01:18;;;;;;;8.77;6.20;;;;;;;21.20;55.17;100962.41;6191023;23;20103;-85
2022/08/14 00:03:44;;;;;;;9.70;6.57;;;;;;;21.16;55.87;100950.28;6191139;23;20514;-84
2022/08/14 00:06:09;;;;;;;8.33;7.17;;;;;;;21.13;55.80;100953.63;6190651;23;20004;-85
2022/08/14 00:08:35;;;;;;;7.20;6.30;;;;;;;21.15;56.17;100954.16;6166343;23;20015;-84
2022/08/14 00:11:00;;;;;;;7.57;6.75;;;;;;;21.01;54.93;100944.88;6166274;23;20022;-85
2022/08/14 00:13:30;;;;;;;9.93;6.67;;;;;;;21.06;56.41;100947.59;6191283;23;20377;-84
2022/08/14 00:15:58;;;;;;;9.82;7.15;;;;;;;20.95;55.61;100941.31;6218361;23;20040;-84
2022/08/14 00:18:25;;;;;;;9.13;7.05;;;;;;;20.91;56.52;100937.44;6190370;23;20058;-84
2022/08/14 00:20:52;;;;;;;11.40;7.17;;;;;;;20.95;56.46;100937.69;6190097;23;20105;-84
2022/08/14 00:23:18;;;;;;;9.27;7.25;;;;;;;20.84;55.78;100923.13;6217584;23;20015;-84
2022/08/14 00:25:49;;;;;;;9.90;7.60;;;;;;;20.82;56.34;100934.44;6217532;23;20004;-84
2022/08/14 00:28:20;;;;;;;10.63;7.40;;;;;;;20.82;56.64;100928.94;6191567;23;20000;-84
2022/08/14 00:30:46;;;;;;;8.27;7.00;;;;;;;20.76;56.33;100916.28;6192026;23;20012;-84
2022/08/14 00:33:12;;;;;;;10.38;7.80;;;;;;;20.70;55.60;100914.66;6218175;23;20004;-85
2022/08/14 00:35:37;;;;;;;8.15;7.22;;;;;;;20.73;56.88;100919.63;6191026;23;20008;-85
2022/08/14 00:38:03;;;;;;;9.30;7.40;;;;;;;20.66;56.56;100913.56;6190906;23;20338;-84
2022/08/14 00:40:28;;;;;;;11.43;7.60;;;;;;;20.67;57.41;100915.22;6190812;23;20335;-84
2022/08/14 00:42:54;;;;;;;14.88;8.05;;;;;;;20.59;56.32;100908.31;6165917;23;20012;-84
2022/08/14 00:45:20;;;;;;;9.07;7.43;;;;;;;20.58;56.39;100908.59;6191318;23;20036;-84
2022/08/14 00:47:47;;;;;;;11.03;8.10;;;;;;;20.54;56.33;100907.53;6216862;23;20008;-85
2022/08/14 00:50:19;;;;;;;10.50;8.48;;;;;;;20.43;56.06;100896.53;6190687;23;20020;-84
2022/08/14 00:52:47;;;;;;;10.32;8.07;;;;;;;20.44;56.74;100903.69;6190696;23;20005;-84
2022/08/14 00:55:16;;;;;;;9.88;8.35;;;;;;;20.38;56.68;100893.78;6190514;23;20004;-84
2022/08/14 00:57:42;;;;;;;15.88;8.30;;;;;;;20.39;56.45;100895.44;6190603;23;20019;-84
2022/08/14 01:00:17;;;;;;;12.77;8.47;;;;;;;20.35;55.84;100888.03;6190655;23;20017;-84
2022/08/14 01:02:43;;;;;;;9.15;8.25;;;;;;;20.30;56.18;100886.13;6216944;23;20032;-84
2022/08/14 01:05:22;;;;;;;9.15;8.18;;;;;;;20.26;57.65;100887.78;6217141;23;20013;-84
2022/08/14 01:07:53;;;;;;;10.00;8.52;;;;;;;20.22;57.40;100881.16;6168702;23;20036;-84
2022/08/14 01:10:19;;;;;;;10.70;8.50;;;;;;;20.21;58.40;100879.50;6190878;23;20066;-84
2022/08/14 01:12:47;;;;;;;12.57;8.40;;;;;;;20.12;57.34;100871.84;6190492;23;20331;-85
2022/08/14 01:15:15;;;;;;;17.70;8.40;;;;;;;20.09;58.61;100874.31;6166012;23;20012;-84
2022/08/14 01:23:13;;;;;;;9.10;7.90;;;;;;;19.98;58.78;100876.25;6195188;23;20019;-85
2022/08/14 01:25:38;;;;;;;10.23;7.83;;;;;;;19.93;58.36;100873.50;6191145;23;20008;-84
2022/08/14 01:28:05;;;;;;;10.93;7.95;;;;;;;19.91;57.95;100871.03;6190423;23;20387;-84
2022/08/14 01:30:31;;;;;;;11.97;8.23;;;;;;;19.86;57.67;100870.22;6191177;23;20020;-84
2022/08/14 01:32:57;;;;;;;10.00;8.07;;;;;;;19.83;58.11;100865.25;6141265;23;20031;-84
2022/08/14 01:35:27;;;;;;;13.82;7.90;;;;;;;19.80;59.02;100869.41;6216623;23;20009;-84
2022/08/14 01:37:52;;;;;;;10.60;7.78;;;;;;;19.79;59.65;100874.06;6166807;23;20004;-84
2022/08/14 01:40:21;;;;;;;10.20;7.87;;;;;;;19.74;59.79;100867.75;6141289;23;20004;-84
2022/08/14 01:42:48;;;;;;;13.70;7.32;;;;;;;19.68;61.43;100872.41;6216949;23;20058;-84
2022/08/14 01:45:13;;;;;;;11.00;8.40;;;;;;;19.64;59.91;100874.88;6165724;23;20013;-84
2022/08/14 01:47:41;;;;;;;9.90;7.97;;;;;;;19.58;59.47;100873.22;6216146;23;20015;-84
2022/08/14 01:50:08;;;;;;;11.35;7.75;;;;;;;19.55;60.06;100883.97;6190946;23;20012;-84
2022/08/14 01:52:35;;;;;;;12.10;8.48;;;;;;;19.53;62.13;100875.16;6165218;23;20005;-84
2022/08/14 01:55:13;;;;;;;11.63;8.20;;;;;;;19.50;61.13;100876.53;6216290;23;20431;-84
2022/08/14 01:57:42;;;;;;;8.95;7.18;;;;;;;19.52;59.66;100876.28;6217151;23;20011;-85
2022/08/14 02:00:15;;;;;;;12.57;8.15;;;;;;;19.45;59.21;100873.78;6190033;23;20016;-84
2022/08/14 02:02:41;;;;;;;10.00;7.15;;;;;;;19.40;59.22;100863.59;6191629;23;20135;-84
2022/08/14 02:05:10;;;;;;;9.10;7.68;;;;;;;19.39;60.15;100859.19;6189594;23;20016;-85
2022/08/14 02:07:36;;;;;;;10.27;7.80;;;;;;;19.33;61.01;100867.72;6189579;23;20020;-85
2022/08/14 02:10:05;;;;;;;10.40;7.40;;;;;;;19.30;61.09;100863.59;6216899;23;20449;-84
2022/08/14 02:12:31;;;;;;;8.38;7.57;;;;;;;19.25;61.54;100866.31;6189984;23;20009;-84
2022/08/14 02:14:56;;;;;;;9.52;7.97;;;;;;;19.18;62.55;100863.03;6190741;23;20019;-84
2022/08/14 02:17:22;;;;;;;9.20;8.13;;;;;;;19.18;63.99;100854.78;6216576;23;20001;-84
2022/08/14 02:19:49;;;;;;;9.23;8.00;;;;;;;19.16;64.17;100856.97;6189665;23;20023;-84
2022/08/14 02:22:17;;;;;;;11.13;7.93;;;;;;;19.11;63.57;100855.84;6190203;23;20051;-84
2022/08/14 02:24:43;;;;;;;10.13;8.30;;;;;;;19.14;63.61;100857.25;6189807;23;20005;-84
2022/08/14 02:27:10;;;;;;;12.50;7.20;;;;;;;19.11;62.74;100861.34;6189892;23;20011;-84
2022/08/14 02:29:36;;;;;;;13.80;8.02;;;;;;;19.05;64.71;100859.69;6165272;23;20074;-84
2022/08/14 02:32:02;;;;;;;10.23;8.30;;;;;;;19.02;65.57;100864.94;6165322;23;20115;-85
2022/08/14 02:34:31;;;;;;;8.52;7.60;;;;;;;19.00;64.69;100853.38;6216052;23;20371;-84
2022/08/14 02:37:19;;;;;;;12.67;8.37;;;;;;;18.95;63.07;100850.63;6190519;23;20004;-84
2022/08/14 02:39:45;;;;;;;11.82;7.82;;;;;;;18.85;63.05;100848.63;6190460;23;20036;-84
2022/08/14 02:42:14;;;;;;;11.73;8.13;;;;;;;18.85;63.01;100848.63;6189412;23;20091;-84
2022/08/14 02:44:41;;;;;;;8.60;7.10;;;;;;;18.89;63.27;100847.03;6189741;23;20075;-84
2022/08/14 02:47:07;;;;;;;10.85;8.32;;;;;;;18.88;62.86;100843.47;6189711;23;20028;-85
2022/08/14 02:49:34;;;;;;;8.87;7.90;;;;;;;18.84;62.83;100845.06;6165130;23;20016;-85
2022/08/14 02:52:00;;;;;;;11.35;7.72;;;;;;;18.83;62.48;100843.41;6216633;23;20080;-84
2022/08/14 02:54:26;;;;;;;9.20;7.57;;;;;;;18.77;62.12;100837.06;6215839;23;20040;-85
2022/08/14 02:56:53;;;;;;;11.50;7.63;;;;;;;18.85;62.01;100846.72;6216328;23;20008;-85
2022/08/14 02:59:22;;;;;;;10.00;7.25;;;;;;;18.86;62.24;100847.56;6216271;23;20091;-85
2022/08/14 03:01:47;;;;;;;11.63;7.25;;;;;;;18.83;62.10;100845.34;6216291;23;20098;-85
2022/08/14 03:04:13;;;;;;;10.00;7.23;;;;;;;18.75;62.33;100827.47;6189821;23;20013;-84
2022/08/14 03:06:42;;;;;;;8.23;7.07;;;;;;;18.80;62.27;100837.63;6164860;23;20012;-84
2022/08/14 03:09:10;;;;;;;9.25;6.93;;;;;;;18.70;62.64;100825.50;6216225;23;20084;-84
2022/08/14 03:11:36;;;;;;;11.35;7.40;;;;;;;18.72;63.24;100831.56;6215873;23;20000;-84
2022/08/14 03:14:01;;;;;;;13.77;7.53;;;;;;;18.64;63.82;100829.31;6189615;23;20095;-85
2022/08/14 03:16:34;;;;;;;13.05;7.15;;;;;;;18.65;64.04;100830.19;6189281;23;20020;-84
2022/08/14 03:19:01;;;;;;;9.37;7.53;;;;;;;18.55;64.92;100828.22;6166421;23;20332;-83
2022/08/14 03:21:30;;;;;;;8.75;7.68;;;;;;;18.56;64.84;100838.94;6216193;23;20016;-84
2022/08/14 03:24:08;;;;;;;9.10;7.72;;;;;;;18.54;65.67;100835.63;6216112;23;20020;-84
2022/08/14 03:26:34;;;;;;;12.52;7.78;;;;;;;18.48;63.58;100828.44;6192566;23;20005;-84
2022/08/14 03:29:01;;;;;;;11.55;7.40;;;;;;;18.46;65.04;100824.34;6164646;23;20037;-84
2022/08/14 03:31:27;;;;;;;8.80;7.83;;;;;;;18.41;64.40;100828.72;6216106;23;20063;-85
2022/08/14 03:33:52;;;;;;;10.75;8.05;;;;;;;18.33;65.34;100822.91;6188722;23;20009;-84
2022/08/14 03:36:20;;;;;;;9.83;7.70;;;;;;;18.32;64.59;100818.50;6189474;23;20009;-84
2022/08/14 03:38:49;;;;;;;10.15;7.57;;;;;;;18.31;64.98;100811.38;6189478;23;20020;-86
2022/08/14 03:41:21;;;;;;;9.32;8.18;;;;;;;18.28;63.91;100814.63;6189553;23;20008;-84
2022/08/14 03:44:00;;;;;;;9.52;7.57;;;;;;;18.25;64.96;100810.50;6189019;23;20036;-84
2022/08/14 03:46:33;;;;;;;9.52;8.30;;;;;;;18.21;66.12;100812.13;6216382;23;20086;-84
2022/08/14 03:49:01;;;;;;;8.40;7.53;;;;;;;18.21;66.46;100812.97;6189821;23;20039;-84
2022/08/14 03:51:27;;;;;;;13.10;7.95;;;;;;;18.21;66.55;100812.97;6189314;23;20017;-84
2022/08/14 03:53:58;;;;;;;13.30;8.07;;;;;;;18.15;65.70;100816.78;6216623;23;20079;-84
2022/08/14 03:56:25;;;;;;;10.88;7.88;;;;;;;18.09;66.46;100814.28;6217588;23;20028;-84
2022/08/14 03:58:54;;;;;;;10.10;7.38;;;;;;;18.08;65.40;100821.69;6191638;23;20043;-84
2022/08/14 04:01:22;;;;;;;10.30;7.97;;;;;;;18.07;65.84;100822.78;6191852;23;20004;-84
2022/08/14 04:03:48;;;;;;;10.93;7.80;;;;;;;18.01;66.48;100807.34;6191129;23;20008;-85
2022/08/14 04:06:15;;;;;;;10.55;7.80;;;;;;;17.98;66.33;100807.91;6165947;23;20071;-85
2022/08/14 04:08:41;;;;;;;10.98;7.90;;;;;;;18.01;67.17;100816.44;6191459;23;20442;-84
2022/08/14 04:11:08;;;;;;;11.45;7.90;;;;;;;17.97;67.76;100812.56;6217842;23;20011;-85
2022/08/14 04:13:36;;;;;;;9.17;8.10;;;;;;;17.94;68.02;100806.75;6191039;23;20087;-85
2022/08/14 04:16:08;;;;;;;11.70;8.30;;;;;;;17.98;67.76;100811.47;6217710;23;20012;-85
2022/08/14 04:18:38;;;;;;;10.82;8.50;;;;;;;17.96;67.45;100807.34;6191379;23;20016;-85
2022/08/14 04:21:04;;;;;;;9.82;7.60;;;;;;;17.95;66.70;100801.03;6190515;23;20088;-85
2022/08/14 04:23:29;;;;;;;10.60;8.60;;;;;;;17.91;65.51;100799.06;6217644;23;20028;-85
2022/08/14 04:25:55;;;;;;;10.45;8.30;;;;;;;17.84;65.14;100799.28;6190534;23;20083;-84
2022/08/14 04:28:21;;;;;;;10.33;8.80;;;;;;;17.83;65.13;100792.97;6191813;23;20012;-85
2022/08/14 04:30:47;;;;;;;11.30;8.35;;;;;;;17.87;65.48;100801.50;6217506;23;20009;-85
2022/08/14 04:33:13;;;;;;;9.40;8.18;;;;;;;17.90;65.43;100802.94;6190486;23;20012;-85
2022/08/14 04:35:39;;;;;;;9.97;8.23;;;;;;;17.83;65.32;100787.50;6165874;23;20004;-85
2022/08/14 04:43:39;;;;;;;12.07;8.75;;;;;;;17.86;65.50;100780.63;6195462;23;20513;-84
2022/08/14 04:46:16;;;;;;;11.67;8.80;;;;;;;17.83;66.35;100773.78;6165879;23;20013;-84
2022/08/14 04:48:42;;;;;;;10.15;8.93;;;;;;;17.84;66.88;100761.69;6191079;23;20040;-85
2022/08/14 04:51:13;;;;;;;12.75;9.65;;;;;;;17.89;67.64;100782.84;6191098;23;20001;-84
2022/08/14 04:53:42;;;;;;;11.07;9.40;;;;;;;17.90;67.08;100768.06;6217426;23;20000;-84
2022/08/14 04:56:09;;;;;;;10.95;8.70;;;;;;;17.91;67.28;100772.47;6191093;23;20319;-84
2022/08/14 04:58:35;;;;;;;9.63;8.70;;;;;;;17.98;67.42;100775.81;6217314;23;20079;-84
2022/08/14 05:01:05;;;;;;;10.68;9.68;;;;;;;17.97;67.47;100767.84;6190573;23;20094;-84
2022/08/14 05:03:34;;;;;;;13.05;9.30;;;;;;;18.03;67.67;100764.84;6190632;23;20000;-84
2022/08/14 05:06:03;;;;;;;11.85;9.35;;;;;;;18.08;67.58;100764.03;6190163;23;20041;-84
2022/08/14 05:08:30;;;;;;;11.68;8.98;;;;;;;18.13;66.97;100769.56;6190425;23;20418;-82
2022/08/14 05:10:56;;;;;;;11.63;8.90;;;;;;;18.14;67.32;100765.69;6217190;23;20072;-85
2022/08/14 05:13:24;;;;;;;11.40;9.27;;;;;;;18.15;67.46;100761.03;6217185;23;20059;-85
2022/08/14 05:15:51;;;;;;;18.13;8.82;;;;;;;18.20;67.39;100772.03;6190615;23;20084;-85
2022/08/14 05:18:20;;;;;;;11.98;9.40;;;;;;;18.19;67.20;100759.41;6190566;23;20020;-85
2022/08/14 05:20:48;;;;;;;13.90;9.13;;;;;;;18.23;68.04;100757.75;6217304;23;20134;-85
2022/08/14 05:23:17;;;;;;;16.17;8.63;;;;;;;18.32;66.70;100763.56;6217010;23;20000;-85
2022/08/14 05:25:46;;;;;;;11.10;7.70;;;;;;;18.35;67.07;100760.28;6216548;23;20004;-84
2022/08/14 05:28:18;;;;;;;12.10;7.65;;;;;;;18.41;66.30;100759.22;6190564;23;20331;-83
2022/08/14 05:30:49;;;;;;;9.50;7.47;;;;;;;18.53;65.58;100761.72;6217060;23;20008;-84
2022/08/14 05:33:22;;;;;;;12.05;8.27;;;;;;;18.54;65.38;100760.59;6190359;23;20009;-83
2022/08/14 05:35:48;;;;;;;10.20;7.37;;;;;;;18.65;64.98;100765.03;6190726;23;20323;-83
2022/08/14 05:38:17;;;;;;;8.32;7.45;;;;;;;18.68;64.95;100759.00;6190984;23;20019;-83
2022/08/14 05:40:46;;;;;;;12.50;7.50;;;;;;;18.79;64.82;100768.06;6216857;23;20008;-89
2022/08/14 05:43:12;;;;;;;11.70;8.32;;;;;;;18.83;64.69;100760.94;6165884;23;20012;-81
2022/08/14 05:45:38;;;;;;;10.30;7.97;;;;;;;18.94;64.13;100770.03;6189740;23;20087;-82
2022/08/14 05:48:04;;;;;;;15.10;7.93;;;;;;;19.03;64.15;100760.19;6216171;23;20037;-85
2022/08/14 05:50:31;;;;;;;9.63;7.97;;;;;;;19.09;63.77;100753.56;6165360;23;20009;-84
2022/08/14 05:52:57;;;;;;;9.00;8.10;;;;;;;19.14;63.46;100750.00;6216441;23;20008;-84
2022/08/14 05:55:23;;;;;;;8.93;8.00;;;;;;;19.23;63.23;100753.03;6190081;23;20058;-83
2022/08/14 05:57:54;;;;;;;9.73;8.13;;;;;;;19.26;63.02;100747.78;6216978;23;20020;-84
2022/08/14 06:00:26;;;;;;;10.35;8.13;;;;;;;19.37;62.82;100753.28;6190987;23;20023;-83
2022/08/14 06:02:55;;;;;;;11.53;7.90;;;;;;;19.44;62.72;100745.56;6216345;23;20013;-84
2022/08/14 06:05:22;;;;;;;12.13;8.15;;;;;;;19.52;62.28;100752.44;6216641;23;20059;-84
2022/08/14 06:07:47;;;;;;;10.70;7.43;;;;;;;19.62;61.94;100749.66;6189860;23;20095;-82
2022/08/14 06:10:13;;;;;;;11.90;7.73;;;;;;;19.75;62.14;100762.00;6189915;23;20092;-82
2022/08/14 06:12:38;;;;;;;9.87;7.73;;;;;;;19.84;61.65;100763.13;6189900;23;20036;-81
2022/08/14 06:15:05;;;;;;;8.60;7.63;;;;;;;19.87;61.60;100757.06;6189887;23;20087;-81
2022/08/14 06:17:31;;;;;;;10.65;7.97;;;;;;;19.97;61.29;100767.22;6216834;23;20004;-81
2022/08/14 06:19:56;;;;;;;12.30;7.67;;;;;;;20.08;61.08;100757.81;6189537;23;20344;-81
2022/08/14 06:22:22;;;;;;;10.83;7.83;;;;;;;20.17;61.01;100758.06;6190010;23;20004;-81
2022/08/14 06:24:47;;;;;;;10.57;7.57;;;;;;;20.22;60.33;100748.94;6189750;23;20020;-81
2022/08/14 06:27:13;;;;;;;11.20;7.27;;;;;;;20.30;60.37;100751.94;6189756;23;20009;-81
2022/08/14 06:29:38;;;;;;;8.70;7.80;;;;;;;20.37;60.09;100740.59;6190037;23;20378;-81
2022/08/14 06:32:04;;;;;;;11.60;7.70;;;;;;;20.47;59.94;100742.47;6189960;23;20359;-81
2022/08/14 06:34:30;;;;;;;9.10;7.47;;;;;;;20.58;59.43;100743.22;6165992;23;20012;-81
2022/08/14 06:36:55;;;;;;;11.53;8.47;;;;;;;20.66;59.82;100743.47;6164975;23;20327;-81
2022/08/14 06:39:22;;;;;;;7.32;6.63;;;;;;;20.72;59.22;100749.78;6190667;23;20004;-81
2022/08/14 06:41:48;;;;;;;8.82;7.32;;;;;;;20.85;59.41;100748.31;6216328;23;20005;-81
2022/08/14 06:44:13;;;;;;;9.30;7.43;;;;;;;20.92;58.51;100751.59;6189518;23;20008;-81
2022/08/14 06:46:39;;;;;;;9.05;7.40;;;;;;;20.98;58.46;100744.91;6189267;23;20001;-81
2022/08/14 06:49:05;;;;;;;10.83;7.30;;;;;;;21.10;58.44;100749.25;6216006;23;20004;-81
2022/08/14 06:51:31;;;;;;;9.35;6.90;;;;;;;21.14;57.91;100739.25;6189685;23;20287;-81
2022/08/14 06:53:56;;;;;;;12.68;7.70;;;;;;;21.21;57.62;100750.78;6189449;23;20005;-81
2022/08/14 06:56:22;;;;;;;8.50;6.97;;;;;;;21.30;57.68;100742.72;6189850;23;20016;-81
2022/08/14 06:58:47;;;;;;;12.00;8.07;;;;;;;21.35;57.28;100743.50;6190682;23;20013;-81
2022/08/14 07:06:41;;;;;;;7.75;7.00;;;;;;;21.59;56.04;100733.63;6193356;23;20019;-81
2022/08/14 07:09:09;;;;;;;8.07;7.00;;;;;;;21.65;55.77;100735.22;6189779;23;20359;-81
2022/08/14 07:11:34;;;;;;;8.82;7.03;;;;;;;21.69;55.96;100728.81;6216129;23;20013;-81
2022/08/14 07:14:00;;;;;;;11.40;6.73;;;;;;;21.80;55.37;100732.28;6189623;23;20080;-81
2022/08/14 07:16:25;;;;;;;8.90;6.57;;;;;;;21.84;55.39;100730.56;6165544;23;20008;-81
2022/08/14 07:18:50;;;;;;;7.60;6.60;;;;;;;21.89;55.01;100730.53;6189576;23;20008;-81
2022/08/14 07:21:16;;;;;;;11.10;7.00;;;;;;;21.99;54.90;100726.00;6165610;23;20027;-81
2022/08/14 07:23:42;;;;;;;8.57;6.50;;;;;;;22.05;53.66;100724.81;6165393;23;20016;-81
2022/08/14 07:26:08;;;;;;;8.03;7.20;;;;;;;22.13;53.83;100726.06;6189170;23;20008;-82
2022/08/14 07:28:36;;;;;;;8.30;6.47;;;;;;;22.22;54.34;100738.13;6190647;23;20009;-81
2022/08/14 07:31:07;;;;;;;9.57;6.80;;;;;;;22.26;54.12;100733.63;6191418;23;20035;-81
2022/08/14 07:33:41;;;;;;;7.60;6.80;;;;;;;22.37;54.05;100737.13;6192018;23;20303;-81
2022/08/14 07:36:10;;;;;;;6.83;6.20;;;;;;;22.45;53.27;100739.22;6191485;23;20008;-81
2022/08/14 07:38:36;;;;;;;10.23;6.60;;;;;;;22.52;53.55;100725.03;6191331;23;20012;-82
2022/08/14 07:41:04;;;;;;;9.95;6.43;;;;;;;22.62;53.37;100724.88;6217909;23;20008;-82
2022/08/14 07:43:29;;;;;;;10.40;6.63;;;;;;;22.70;53.34;100726.13;6217964;23;20001;-82
2022/08/14 07:45:55;;;;;;;7.60;6.70;;;;;;;22.74;53.09;100721.66;6191480;23;20016;-83
2022/08/14 07:48:20;;;;;;;11.47;6.93;;;;;;;22.87;52.62;100722.81;6217481;23;20379;-82
2022/08/14 07:50:46;;;;;;;8.57;6.37;;;;;;;22.95;52.42;100727.69;6191242;23;20366;-82
2022/08/14 07:53:14;;;;;;;9.90;6.72;;;;;;;23.04;51.77;100728.63;6191679;23;20023;-84
2022/08/14 07:55:41;;;;;;;10.00;6.68;;;;;;;23.15;51.08;100721.00;6191157;23;20036;-82
2022/08/14 07:58:07;;;;;;;8.70;6.53;;;;;;;23.22;51.00;100723.38;6218156;23;20008;-82
2022/08/14 08:00:32;;;;;;;7.85;6.25;;;;;;;23.29;50.70;100727.38;6191095;23;20147;-82
2022/08/14 08:02:58;;;;;;;7.77;7.00;;;;;;;23.36;50.81;100728.97;6191037;23;20012;-82
2022/08/14 08:05:25;;;;;;;8.10;6.72;;;;;;;23.43;50.10;100723.81;6190806;23;20470;-83
2022/08/14 08:07:52;;;;;;;8.15;6.63;;;;;;;23.52;50.42;100730.31;6217552;23;20027;-85
2022/08/14 08:10:33;;;;;;;7.87;6.20;;;;;;;23.60;49.58;100729.59;6167258;23;20016;-85
2022/08/14 08:13:12;;;;;;;7.45;6.75;;;;;;;23.70;50.08;100727.78;6191048;23;20004;-88
2022/08/14 08:15:46;;;;;;;9.30;6.38;;;;;;;23.77;49.29;100720.69;6190952;23;20036;-86
2022/08/14 08:18:15;;;;;;;9.43;6.60;;;;;;;23.82;49.44;100712.25;6191086;23;20009;-85
2022/08/14 08:20:50;;;;;;;7.32;5.85;;;;;;;23.91;49.05;100712.38;6217046;23;20013;-86
2022/08/14 08:23:17;;;;;;;10.70;6.50;;;;;;;24.02;48.53;100710.25;6217354;23;20051;-86
2022/08/14 08:25:47;;;;;;;8.38;6.25;;;;;;;24.07;47.82;100692.69;6190342;23;20054;-86
2022/08/14 08:28:14;;;;;;;6.72;6.03;;;;;;;24.18;47.34;100696.84;6217488;23;20013;-86
2022/08/14 08:30:47;;;;;;;6.50;5.88;;;;;;;24.36;47.22;100689.53;6217494;23;20005;-85
2022/08/14 08:33:15;;;;;;;6.80;6.20;;;;;;;24.46;46.78;100691.22;6217499;23;20079;-85
2022/08/14 08:35:42;;;;;;;8.83;6.00;;;;;;;24.51;45.82;100686.41;6166364;23;20015;-84
2022/08/14 08:38:16;;;;;;;6.90;6.20;;;;;;;24.62;45.83;100700.03;6216840;23;20080;-85
2022/08/14 08:40:44;;;;;;;9.23;6.50;;;;;;;24.78;45.40;100706.88;6190583;23;20012;-84
2022/08/14 08:43:18;;;;;;;7.32;6.18;;;;;;;24.92;45.66;100708.75;6190690;23;20419;-85
2022/08/14 08:45:49;;;;;;;8.50;5.95;;;;;;;24.99;45.11;100698.03;6190890;23;20069;-85
2022/08/14 08:48:14;;;;;;;6.53;6.00;;;;;;;25.15;44.81;100706.78;6191010;23;20004;-85
2022/08/14 08:50:40;;;;;;;7.30;6.57;;;;;;;25.29;43.37;100698.34;6216783;23;20015;-85
2022/08/14 08:53:09;;;;;;;8.17;5.93;;;;;;;25.44;43.42;100694.38;6190207;23;20004;-85
2022/08/14 08:55:55;;;;;;;6.72;6.13;;;;;;;25.49;43.08;100689.50;6165362;23;20039;-85
2022/08/14 08:58:21;;;;;;;6.70;6.18;;;;;;;25.61;42.88;100685.31;6190845;23;20009;-86
2022/08/14 09:00:49;;;;;;;12.33;6.23;;;;;;;25.72;42.19;100681.09;6189879;23;20342;-86
2022/08/14 09:03:19;;;;;;;7.72;5.78;;;;;;;25.89;41.79;100695.03;6190834;23;20013;-83
2022/08/14 09:05:56;;;;;;;6.72;5.95;;;;;;;26.04;41.20;100693.81;6217171;23;20005;-86
2022/08/14 09:08:29;;;;;;;7.10;6.20;;;;;;;26.15;41.61;100687.94;6190770;23;20036;-86
2022/08/14 09:10:58;;;;;;;6.85;6.20;;;;;;;26.30;41.35;100684.66;6190128;23;20358;-86
2022/08/14 09:13:35;;;;;;;9.43;6.30;;;;;;;26.39;41.56;100679.09;6191246;23;20315;-86
2022/08/14 09:16:02;;;;;;;6.80;6.10;;;;;;;26.57;40.71;100677.13;6216839;23;20063;-86
2022/08/14 09:18:27;;;;;;;9.57;6.07;;;;;;;26.72;40.25;100676.69;6190636;23;20015;-86
2022/08/14 09:20:58;;;;;;;7.63;5.50;;;;;;;26.84;38.78;100667.66;6217637;23;20016;-86
2022/08/14 09:23:33;;;;;;;7.22;6.05;;;;;;;26.95;39.19;100662.56;6217816;23;20036;-86
2022/08/14 09:26:01;;;;;;;6.78;5.82;;;;;;;27.07;39.08;100656.28;6191464;23;20013;-86
2022/08/14 09:28:26;;;;;;;8.17;5.30;;;;;;;27.25;37.09;100663.47;6190052;23;20004;-86
2022/08/14 09:30:55;;;;;;;6.57;5.75;;;;;;;27.42;37.11;100654.22;6190298;23;20511;-86
2022/08/14 09:33:42;;;;;;;9.93;5.37;;;;;;;27.60;37.01;100671.69;6190669;23;20008;-87
2022/08/14 09:36:19;;;;;;;10.05;5.63;;;;;;;27.75;37.01;100672.25;6191071;23;20001;-86
2022/08/14 09:39:10;;;;;;;8.50;5.75;;;;;;;27.91;36.56;100664.94;6216752;23;20004;-86
2022/08/14 09:42:00;;;;;;;6.72;5.80;;;;;;;28.04;37.22;100665.06;6189851;23;20059;-86
2022/08/14 09:44:44;;;;;;;8.48;5.60;;;;;;;28.17;37.32;100644.47;6190039;23;20007;-86
2022/08/14 09:47:15;;;;;;;7.30;5.50;;;;;;;28.40;36.46;100642.13;6191033;23;20419;-86
2022/08/14 09:49:42;;;;;;;7.93;5.18;;;;;;;28.60;34.86;100642.47;6190019;23;20055;-86
2022/08/14 09:52:17;;;;;;;5.95;4.97;;;;;;;28.82;34.84;100650.47;6189462;23;20084;-87
2022/08/14 09:54:46;;;;;;;8.82;5.30;;;;;;;28.92;34.62;100637.22;6190176;23;20022;-86
2022/08/14 09:57:24;;;;;;;14.23;5.70;;;;;;;29.08;35.39;100626.19;6190022;23;20078;-86
2022/08/14 09:59:53;;;;;;;10.20;5.00;;;;;;;29.29;34.72;100634.50;6216963;23;20431;-86
2022/08/14 10:02:30;;;;;;;6.63;5.00;;;;;;;29.47;35.09;100623.91;6189856;23;20008;-86
2022/08/14 10:05:06;;;;;;;7.25;5.60;;;;;;;29.70;33.81;100618.66;6216954;23;20008;-86
2022/08/14 10:07:34;;;;;;;10.32;5.55;;;;;;;29.90;33.41;100623.31;6190790;23;20031;-86
2022/08/14 10:10:00;;;;;;;5.78;5.28;;;;;;;30.12;33.75;100618.38;6189402;23;20300;-86
2022/08/14 10:12:41;;;;;;;6.43;5.77;;;;;;;30.42;34.20;100615.28;6190020;23;20020;-87
2022/08/14 10:15:20;;;;;;;7.97;5.65;;;;;;;30.60;34.40;100608.16;6189229;23;20019;-86
2022/08/14 10:17:49;;;;;;;9.25;5.90;;;;;;;30.82;33.44;100610.75;6190286;23;20477;-86
2022/08/14 10:20:21;;;;;;;6.75;6.05;;;;;;;30.94;33.37;100605.88;6217075;23;20016;-86
2022/08/14 10:22:50;;;;;;;6.38;5.45;;;;;;;31.11;32.12;100601.94;6215909;23;20108;-86
2022/08/14 10:25:18;;;;;;;11.87;5.93;;;;;;;31.34;32.18;100604.09;6164249;23;20094;-86
2022/08/14 10:27:55;;;;;;;7.15;6.05;;;;;;;31.68;31.50;100604.50;6189118;23;20072;-86
2022/08/14 10:30:21;;;;;;;12.73;6.00;;;;;;;31.91;31.66;100604.63;6189779;23;20088;-86
2022/08/14 10:32:50;;;;;;;6.47;5.67;;;;;;;32.09;30.63;100587.38;6165465;23;20005;-86
2022/08/14 10:35:16;;;;;;;6.05;5.55;;;;;;;32.29;30.73;100589.03;6189653;23;20008;-86
2022/08/14 10:37:48;;;;;;;8.05;6.07;;;;;;;32.36;30.79;100585.53;6164897;23;20066;-86
2022/08/14 10:40:26;;;;;;;8.37;6.27;;;;;;;32.61;30.90;100580.38;6190112;23;20091;-86
2022/08/14 10:42:52;;;;;;;11.50;6.22;;;;;;;32.80;30.30;100582.38;6190213;23;20004;-86
2022/08/14 10:45:29;;;;;;;6.22;5.60;;;;;;;32.81;30.29;100574.78;6165746;23;20023;-86
2022/08/14 10:47:57;;;;;;;6.47;5.83;;;;;;;33.12;29.86;100570.06;6189767;23;20358;-87
2022/08/14 10:50:33;;;;;;;7.50;5.90;;;;;;;33.38;30.34;100577.72;6189427;23;20418;-86
2022/08/14 10:53:02;;;;;;;8.25;6.50;;;;;;;33.44;29.46;100572.59;6188362;23;20066;-87
2022/08/14 10:55:38;;;;;;;7.13;6.43;;;;;;;33.67;29.50;100564.88;6216830;23;20009;-86
2022/08/14 10:58:14;;;;;;;8.55;6.25;;;;;;;33.83;28.35;100561.13;6190666;23;20083;-86
2022/08/14 11:00:52;;;;;;;9.13;6.07;;;;;;;34.16;28.51;100565.13;6216260;23;20012;-86
2022/08/14 11:03:20;;;;;;;7.47;6.22;;;;;;;34.41;27.61;100565.44;6189974;23;20336;-87
2022/08/14 11:06:00;;;;;;;8.15;5.93;;;;;;;34.45;27.77;100555.03;6216163;23;20010;-86
2022/08/14 11:08:32;;;;;;;6.65;5.47;;;;;;;34.70;26.97;100572.19;6189854;23;20012;-86
2022/08/14 11:11:04;;;;;;;5.50;5.10;;;;;;;34.65;24.80;100563.28;6189871;23;20319;-87
2022/08/14 11:13:34;;;;;;;5.80;5.40;;;;;;;35.03;24.77;100569.69;6189488;23;20012;-87
2022/08/14 11:16:03;;;;;;;6.10;5.32;;;;;;;35.29;24.95;100558.22;6189832;23;20370;-86
2022/08/14 11:18:31;;;;;;;5.20;4.80;;;;;;;35.87;23.76;100566.25;6190598;23;20009;-86
2022/08/14 11:20:59;;;;;;;9.05;5.40;;;;;;;36.64;22.47;100561.22;6215750;23;20095;-86
2022/08/14 11:23:33;;;;;;;11.25;5.25;;;;;;;38.41;22.18;100553.19;6189642;23;20009;-86
2022/08/14 11:26:04;;;;;;;6.17;5.53;;;;;;;40.80;19.33;100549.38;6189678;23;20005;-87
2022/08/14 11:28:37;;;;;;;6.20;5.40;;;;;;;43.01;17.35;100545.59;6165119;23;20005;-87
2022/08/14 11:31:08;;;;;;;5.93;5.43;;;;;;;45.30;15.21;100536.13;6189942;23;20008;-86
2022/08/14 11:33:37;;;;;;;6.10;5.55;;;;;;;46.95;14.05;100543.19;6189027;23;20415;-86
2022/08/14 11:36:05;;;;;;;7.88;6.18;;;;;;;48.41;12.80;100536.09;6216032;23;20008;-85
2022/08/14 11:51:59;;;;;;;6.97;6.47;;;;;;;53.25;10.71;100491.38;6214996;23;20020;-85
2022/08/14 11:54:27;;;;;;;7.30;6.63;;;;;;;53.44;8.50;100480.88;6189287;23;20059;-85
2022/08/14 11:56:54;;;;;;;7.95;7.35;;;;;;;53.45;8.60;100475.88;6189567;23;20008;-84
2022/08/14 12:06:55;;;;;;;10.10;9.10;;;;;;;55.39;8.85;100457.28;6215069;23;20016;-85